Time;durP1;ratioP1;P1;durP2;ratioP2;P2;SDS_P1;SDS_P2;PMS_P1;PMS_P2;Temp;Humidity;BMP_temperature;BMP_pressure;BME280_temperature;BME280_humidity;BME280_pressure;Samples;Min_cycle;Max_cycle;Signal;HPM_P1;HPM_P2
2022/01/08 00:00:15;;;;;;;1.42;0.50;;;14.20;47.70;;;;;;5073045;28;20055;-65
2022/01/08 00:02:43;;;;;;;1.30;0.30;;;14.20;47.70;;;;;;5074250;28;20561;-65
2022/01/08 00:05:10;;;;;;;1.77;0.40;;;14.10;47.70;;;;;;5073031;28;20171;-66
2022/01/08 00:07:36;;;;;;;0.85;0.30;;;14.10;47.70;;;;;;5073144;28;20518;-67
2022/01/08 00:10:03;;;;;;;2.95;0.47;;;14.10;47.70;;;;;;5073121;28;20229;-65
2022/01/08 00:12:28;;;;;;;1.30;0.30;;;14.10;47.70;;;;;;5074022;28;20422;-65
2022/01/08 00:14:54;;;;;;;1.70;0.50;;;14.10;47.60;;;;;;5087372;28;20055;-66
2022/01/08 00:17:23;;;;;;;1.90;0.43;;;14.10;48.40;;;;;;5096539;28;20109;-65
2022/01/08 00:19:50;;;;;;;1.35;0.30;;;14.10;47.60;;;;;;5114584;28;20501;-65
2022/01/08 00:22:16;;;;;;;1.15;0.40;;;14.10;47.60;;;;;;5114436;28;20058;-67
2022/01/08 00:24:41;;;;;;;1.75;0.30;;;14.10;47.60;;;;;;5114179;28;20048;-67
2022/01/08 00:27:07;;;;;;;1.65;0.40;;;14.10;47.60;;;;;;5114254;28;20046;-65
2022/01/08 00:29:33;;;;;;;1.35;0.40;;;14.10;47.70;;;;;;5095981;28;20407;-67
2022/01/08 00:31:59;;;;;;;1.73;0.40;;;14.10;47.70;;;;;;5096014;28;20044;-66
2022/01/08 00:34:24;;;;;;;1.60;0.35;;;14.10;47.70;;;;;;5114257;28;20126;-65
2022/01/08 00:36:50;;;;;;;0.90;0.30;;;14.10;47.70;;;;;;5095923;28;20126;-65
2022/01/08 00:39:16;;;;;;;2.03;0.30;;;14.10;47.70;;;;;;5096101;28;20036;-65
2022/01/08 00:41:41;;;;;;;2.58;0.50;;;14.10;47.70;;;;;;5114109;28;20543;-65
2022/01/08 00:44:07;;;;;;;0.85;0.30;;;14.10;47.70;;;;;;5095672;28;20529;-66
2022/01/08 00:46:34;;;;;;;1.48;0.50;;;14.10;47.70;;;;;;5096013;28;20043;-66
2022/01/08 00:49:00;;;;;;;1.65;0.30;;;14.10;47.70;;;;;;5095738;28;20043;-64
2022/01/08 00:51:26;;;;;;;1.58;0.40;;;14.10;47.80;;;;;;5113871;28;20044;-65
2022/01/08 00:53:52;;;;;;;1.40;0.30;;;14.10;48.50;;;;;;5113836;28;20040;-65
2022/01/08 00:56:17;;;;;;;2.25;0.60;;;14.10;47.70;;;;;;5113880;28;20035;-67
2022/01/08 00:58:43;;;;;;;1.63;0.50;;;14.00;47.70;;;;;;5095312;28;20051;-65
2022/01/08 01:01:09;;;;;;;1.42;0.40;;;14.00;47.70;;;;;;5095400;28;20031;-66
2022/01/08 01:03:35;;;;;;;0.85;0.30;;;14.00;47.70;;;;;;5113636;28;20063;-66
2022/01/08 01:06:01;;;;;;;1.52;0.50;;;14.00;47.70;;;;;;5095275;28;20050;-66
2022/01/08 01:08:27;;;;;;;2.05;0.50;;;14.00;47.70;;;;;;5094772;28;20044;-65
2022/01/08 01:10:53;;;;;;;1.05;0.30;;;14.00;47.70;;;;;;5113418;28;20372;-65
2022/01/08 01:13:18;;;;;;;1.17;0.40;;;14.00;47.70;;;;;;5095199;28;20063;-65
2022/01/08 01:15:44;;;;;;;1.08;0.40;;;14.00;47.80;;;;;;5077472;28;20082;-65
2022/01/08 01:18:10;;;;;;;1.45;0.55;;;14.00;47.80;;;;;;5071472;28;20089;-64
2022/01/08 01:20:36;;;;;;;2.25;0.50;;;14.00;47.70;;;;;;5071643;28;20300;-66
2022/01/08 01:23:09;;;;;;;2.60;0.60;;;14.00;47.70;;;;;;5071656;28;20040;-67
2022/01/08 01:25:39;;;;;;;1.02;0.40;;;14.00;47.70;;;;;;5070934;28;20055;-65
2022/01/08 01:28:17;;;;;;;1.90;0.50;;;14.00;47.70;;;;;;5071221;28;20049;-65
2022/01/08 01:47:32;;;;;;;1.48;0.40;;;13.90;47.80;;;;;;5087968;28;20106;-67
2022/01/08 01:49:58;;;;;;;1.10;0.40;;;13.90;47.80;;;;;;5088267;28;20028;-64
2022/01/08 01:52:24;;;;;;;1.10;0.40;;;13.90;47.80;;;;;;5088279;28;20044;-65
2022/01/08 01:54:50;;;;;;;1.48;0.35;;;13.90;47.80;;;;;;5087959;28;20049;-64
2022/01/08 01:57:17;;;;;;;1.23;0.40;;;13.90;47.80;;;;;;5088120;28;20047;-65
2022/01/08 01:59:43;;;;;;;1.48;0.40;;;13.80;47.80;;;;;;5087888;28;20098;-65
2022/01/08 02:02:09;;;;;;;2.17;0.50;;;13.90;47.80;;;;;;5087919;28;20044;-64
2022/01/08 02:04:35;;;;;;;1.73;0.38;;;14.00;47.80;;;;;;5088057;28;20036;-67
2022/01/08 02:07:01;;;;;;;0.93;0.25;;;14.20;47.50;;;;;;5089070;28;20040;-65
2022/01/08 02:09:27;;;;;;;1.25;0.52;;;14.40;47.20;;;;;;5088953;28;20051;-64
2022/01/08 02:12:03;;;;;;;2.17;0.40;;;14.70;46.80;;;;;;5088871;28;20392;-66
2022/01/08 02:14:32;;;;;;;0.85;0.55;;;14.90;46.30;;;;;;5087782;28;20043;-65
2022/01/08 02:16:58;;;;;;;1.58;0.20;;;15.30;45.80;;;;;;5087489;28;20044;-66
2022/01/08 02:19:27;;;;;;;1.80;0.30;;;15.60;45.20;;;;;;5087688;28;20040;-65
2022/01/08 02:21:55;;;;;;;1.55;0.40;;;16.00;44.60;;;;;;5087660;28;20044;-66
2022/01/08 02:24:22;;;;;;;0.70;0.20;;;16.40;44.00;;;;;;5087630;28;20074;-65
2022/01/08 02:26:48;;;;;;;1.27;0.35;;;16.80;43.30;;;;;;5088542;28;20037;-66
2022/01/08 02:29:15;;;;;;;0.95;0.22;;;17.20;42.60;;;;;;5087656;28;20039;-65
2022/01/08 02:31:51;;;;;;;0.70;0.10;;;17.50;42.10;;;;;;5088500;28;20046;-65
2022/01/08 02:34:16;;;;;;;1.40;0.25;;;17.80;41.70;;;;;;5087484;28;20052;-64
2022/01/08 02:36:45;;;;;;;0.80;0.28;;;18.00;41.20;;;;;;5087449;28;20147;-65
2022/01/08 02:39:12;;;;;;;0.98;0.28;;;18.20;41.00;;;;;;5087152;28;20040;-65
2022/01/08 02:41:39;;;;;;;0.77;0.30;;;18.30;40.70;;;;;;5086935;28;20048;-67
2022/01/08 02:44:07;;;;;;;1.38;0.22;;;18.30;40.40;;;;;;5087939;28;20106;-65
2022/01/08 02:46:39;;;;;;;1.35;0.73;;;18.40;40.30;;;;;;5088330;28;20484;-66
2022/01/08 02:49:05;;;;;;;1.40;0.22;;;18.40;40.10;;;;;;5086898;28;20093;-65
2022/01/08 02:51:34;;;;;;;1.55;0.20;;;18.40;40.10;;;;;;5088260;28;20468;-64
2022/01/08 02:54:00;;;;;;;1.20;0.20;;;18.30;40.10;;;;;;5084175;28;20076;-67
2022/01/08 02:56:25;;;;;;;1.00;0.30;;;18.30;40.10;;;;;;5074632;28;20518;-67
2022/01/08 02:58:51;;;;;;;2.20;0.35;;;18.20;40.80;;;;;;5073271;28;20417;-65
2022/01/08 03:01:17;;;;;;;1.67;0.30;;;18.20;40.20;;;;;;5073531;28;20032;-65
2022/01/08 03:03:42;;;;;;;1.52;0.20;;;18.10;40.20;;;;;;5073151;28;20090;-65
2022/01/08 03:06:08;;;;;;;0.85;0.28;;;18.00;40.20;;;;;;5073003;28;20048;-65
2022/01/08 03:08:34;;;;;;;0.73;0.22;;;18.00;40.40;;;;;;5073392;28;20116;-65
2022/01/08 03:10:59;;;;;;;0.90;0.30;;;17.80;40.40;;;;;;5073231;28;20366;-66
2022/01/08 03:13:25;;;;;;;1.15;0.30;;;17.70;40.50;;;;;;5074312;28;20047;-66
2022/01/08 03:15:52;;;;;;;1.10;0.22;;;17.70;40.60;;;;;;5074402;28;20480;-66
2022/01/08 03:18:18;;;;;;;1.00;0.30;;;17.60;40.80;;;;;;5074291;28;20044;-65
2022/01/08 03:20:49;;;;;;;0.82;0.20;;;17.50;40.90;;;;;;5072888;28;20499;-65
2022/01/08 03:23:17;;;;;;;1.17;0.30;;;17.40;41.00;;;;;;5073995;28;20039;-65
2022/01/08 03:25:44;;;;;;;1.73;0.20;;;17.30;41.10;;;;;;5073021;28;20106;-68
2022/01/08 03:28:16;;;;;;;1.08;0.20;;;17.20;41.30;;;;;;5072961;28;20040;-66
2022/01/08 03:30:47;;;;;;;1.08;0.20;;;17.10;41.30;;;;;;5072753;28;20480;-65
2022/01/08 03:33:16;;;;;;;1.65;0.30;;;17.00;41.50;;;;;;5072645;28;20511;-67
2022/01/08 03:35:42;;;;;;;0.60;0.20;;;16.90;41.60;;;;;;5072642;28;20537;-66
2022/01/08 03:38:07;;;;;;;1.27;0.20;;;16.80;41.80;;;;;;5072497;28;20044;-65
2022/01/08 03:40:33;;;;;;;1.75;0.20;;;16.70;41.90;;;;;;5072514;28;20053;-65
2022/01/08 03:43:01;;;;;;;0.85;0.30;;;16.70;42.00;;;;;;5072178;28;20059;-65
2022/01/08 03:45:27;;;;;;;1.05;0.28;;;16.60;42.20;;;;;;5073686;28;20048;-65
2022/01/08 03:48:06;;;;;;;2.95;0.32;;;16.50;42.20;;;;;;5072625;28;20063;-65
2022/01/08 03:50:32;;;;;;;1.17;0.43;;;16.40;42.30;;;;;;5072581;28;20036;-66
2022/01/08 03:52:57;;;;;;;1.42;0.40;;;16.30;42.50;;;;;;5072272;28;20510;-65
2022/01/08 03:55:23;;;;;;;1.30;0.50;;;16.20;42.50;;;;;;5072198;28;20047;-65
2022/01/08 03:57:49;;;;;;;0.98;0.30;;;16.20;42.60;;;;;;5072298;28;20040;-67
2022/01/08 04:00:17;;;;;;;1.77;0.30;;;16.10;42.60;;;;;;5073360;28;20431;-65
2022/01/08 04:02:43;;;;;;;2.05;0.28;;;16.10;42.70;;;;;;5073335;28;20040;-65
2022/01/08 04:05:09;;;;;;;1.40;0.38;;;16.00;42.80;;;;;;5072225;28;20119;-65
2022/01/08 04:07:34;;;;;;;1.50;0.68;;;15.90;42.90;;;;;;5070938;28;20439;-66
2022/01/08 04:10:00;;;;;;;0.80;0.30;;;15.90;43.00;;;;;;5073065;28;20041;-66
2022/01/08 04:12:36;;;;;;;1.23;0.40;;;15.90;43.10;;;;;;5073299;28;20036;-66
2022/01/08 04:15:07;;;;;;;1.33;0.30;;;15.80;43.20;;;;;;5071995;28;20476;-66
2022/01/08 04:17:33;;;;;;;2.10;0.50;;;15.70;43.30;;;;;;5072044;28;20037;-66
2022/01/08 04:19:59;;;;;;;1.58;0.30;;;15.60;43.40;;;;;;5071972;28;20124;-66
2022/01/08 04:22:26;;;;;;;2.13;0.40;;;15.50;43.40;;;;;;5072800;28;20039;-66
2022/01/08 04:24:52;;;;;;;1.63;0.30;;;15.50;43.60;;;;;;5071979;28;20032;-66
2022/01/08 04:27:17;;;;;;;1.38;0.28;;;15.40;43.70;;;;;;5071517;28;20041;-65
2022/01/08 04:29:43;;;;;;;1.13;0.40;;;15.30;43.90;;;;;;5071557;28;20094;-66
2022/01/08 04:32:09;;;;;;;0.90;0.30;;;15.30;44.10;;;;;;5072816;28;20044;-65
2022/01/08 04:34:35;;;;;;;1.73;0.50;;;15.10;44.10;;;;;;5071440;28;20047;-66
2022/01/08 04:37:00;;;;;;;2.63;0.50;;;15.00;44.30;;;;;;5072621;28;20113;-66
2022/01/08 04:39:27;;;;;;;1.90;0.40;;;15.00;44.50;;;;;;5071386;28;20051;-66
2022/01/08 04:41:53;;;;;;;0.90;0.30;;;14.90;44.60;;;;;;5072732;28;20039;-67
2022/01/08 04:44:19;;;;;;;1.20;0.30;;;14.90;44.70;;;;;;5072252;28;20052;-66
2022/01/08 04:46:45;;;;;;;2.03;0.52;;;14.80;44.90;;;;;;5071355;28;20357;-66
2022/01/08 04:49:11;;;;;;;3.13;0.40;;;14.70;45.00;;;;;;5072517;28;20037;-66
2022/01/08 04:51:37;;;;;;;2.10;0.50;;;14.70;45.80;;;;;;5071245;28;20128;-66
2022/01/08 04:54:03;;;;;;;0.73;0.30;;;14.60;45.10;;;;;;5071233;28;20430;-66
2022/01/08 04:56:29;;;;;;;1.13;0.30;;;14.60;45.30;;;;;;5070969;28;20048;-65
2022/01/08 04:58:54;;;;;;;2.13;0.63;;;14.60;45.40;;;;;;5071236;28;20105;-66
2022/01/08 05:01:20;;;;;;;1.10;0.30;;;14.50;45.40;;;;;;5071202;28;20434;-66
2022/01/08 05:03:46;;;;;;;1.65;0.43;;;14.50;45.50;;;;;;5071247;28;20516;-66
2022/01/08 05:06:11;;;;;;;1.98;0.50;;;14.50;45.50;;;;;;5072152;28;20040;-66
2022/01/08 05:08:37;;;;;;;1.52;0.35;;;14.40;45.50;;;;;;5070793;28;20078;-66
2022/01/08 05:11:03;;;;;;;0.85;0.30;;;14.40;45.60;;;;;;5072344;28;20047;-66
2022/01/08 05:13:29;;;;;;;2.35;0.30;;;14.40;45.60;;;;;;5070710;28;20047;-67
2022/01/08 05:15:55;;;;;;;1.23;0.40;;;14.40;45.70;;;;;;5070734;28;20044;-66
2022/01/08 05:18:22;;;;;;;1.00;0.40;;;14.30;45.70;;;;;;5071730;28;20041;-66
2022/01/08 05:20:56;;;;;;;1.92;0.40;;;14.30;46.40;;;;;;5070743;28;20040;-66
2022/01/08 05:23:21;;;;;;;2.13;0.40;;;14.30;45.70;;;;;;5070696;28;20044;-66
2022/01/08 05:25:47;;;;;;;1.00;0.30;;;14.30;45.80;;;;;;5071893;28;20043;-67
2022/01/08 05:28:13;;;;;;;1.45;0.40;;;14.30;45.80;;;;;;5070870;28;20040;-66
2022/01/08 05:30:39;;;;;;;1.17;0.40;;;14.20;45.80;;;;;;5070844;28;20503;-66
2022/01/08 05:33:04;;;;;;;1.92;0.38;;;14.20;45.90;;;;;;5070791;28;20387;-66
2022/01/08 05:35:30;;;;;;;1.80;0.43;;;14.20;45.90;;;;;;5070784;28;20461;-66
2022/01/08 05:37:56;;;;;;;1.17;0.40;;;14.20;46.00;;;;;;5069989;28;20079;-66
2022/01/08 05:40:22;;;;;;;2.05;0.30;;;14.10;45.90;;;;;;5071789;28;20079;-66
2022/01/08 05:42:49;;;;;;;1.77;1.00;;;14.10;46.00;;;;;;5071434;28;20091;-66
2022/01/08 05:45:15;;;;;;;0.90;0.35;;;14.10;46.00;;;;;;5070573;28;20044;-66
2022/01/08 05:47:40;;;;;;;1.58;0.70;;;14.10;46.00;;;;;;5071654;28;20089;-66
2022/01/08 05:50:08;;;;;;;1.98;0.38;;;14.10;46.10;;;;;;5070651;28;20119;-66
2022/01/08 05:52:33;;;;;;;2.15;0.65;;;14.10;46.10;;;;;;5071669;28;20480;-67
2022/01/08 05:55:03;;;;;;;1.55;0.50;;;14.10;46.10;;;;;;5071802;28;20044;-66
2022/01/08 05:57:28;;;;;;;1.63;0.30;;;14.00;46.10;;;;;;5071576;28;20044;-66
2022/01/08 05:59:54;;;;;;;2.13;0.50;;;14.00;46.10;;;;;;5071595;28;20041;-66
2022/01/08 06:02:20;;;;;;;2.47;0.50;;;14.00;46.10;;;;;;5070465;28;20091;-66
2022/01/08 06:04:46;;;;;;;1.42;0.35;;;14.00;46.10;;;;;;5070226;28;20511;-66
2022/01/08 06:07:11;;;;;;;0.90;0.30;;;14.00;46.20;;;;;;5071421;28;20028;-66
2022/01/08 06:09:37;;;;;;;1.65;0.50;;;14.00;46.20;;;;;;5070084;28;20440;-66
2022/01/08 06:12:03;;;;;;;1.27;0.40;;;13.90;46.10;;;;;;5070507;28;20086;-66
2022/01/08 06:14:28;;;;;;;1.50;0.30;;;13.90;46.90;;;;;;5070315;28;20059;-66
2022/01/08 06:16:57;;;;;;;1.95;0.47;;;13.90;46.20;;;;;;5070435;28;20123;-66
2022/01/08 06:19:23;;;;;;;1.75;0.30;;;13.90;46.30;;;;;;5071428;28;20047;-66
2022/01/08 06:21:49;;;;;;;1.25;0.43;;;13.90;46.20;;;;;;5070431;28;20052;-67
2022/01/08 06:24:14;;;;;;;2.38;0.50;;;13.90;46.30;;;;;;5069963;28;20040;-66
2022/01/08 06:26:40;;;;;;;1.10;0.40;;;13.90;46.30;;;;;;5071418;28;20410;-66
2022/01/08 06:29:06;;;;;;;1.33;0.50;;;13.80;46.20;;;;;;5070499;28;20044;-66
2022/01/08 06:31:31;;;;;;;1.33;0.50;;;13.80;46.30;;;;;;5073829;28;20396;-66
2022/01/08 06:34:00;;;;;;;1.08;0.32;;;13.80;46.30;;;;;;5074034;28;20044;-67
2022/01/08 06:36:28;;;;;;;1.80;0.30;;;13.80;46.30;;;;;;5075075;28;20406;-66
2022/01/08 06:38:54;;;;;;;1.58;0.50;;;13.80;46.30;;;;;;5073706;28;20131;-66
2022/01/08 06:41:20;;;;;;;1.27;0.28;;;13.80;46.40;;;;;;5075107;28;20123;-67
2022/01/08 06:43:46;;;;;;;2.05;0.40;;;13.80;46.40;;;;;;5074568;28;20052;-66
2022/01/08 06:46:12;;;;;;;2.42;0.45;;;13.80;46.40;;;;;;5073675;28;20114;-67
2022/01/08 06:48:38;;;;;;;1.52;0.30;;;13.70;46.40;;;;;;5074853;28;20032;-66
2022/01/08 06:51:04;;;;;;;1.38;0.30;;;13.80;46.50;;;;;;5074932;28;20051;-66
2022/01/08 06:53:30;;;;;;;0.90;0.30;;;13.90;46.40;;;;;;5074702;28;20036;-66
2022/01/08 06:55:55;;;;;;;1.52;0.73;;;14.10;46.20;;;;;;5074578;28;20144;-66
2022/01/08 06:58:21;;;;;;;1.05;0.30;;;14.30;45.80;;;;;;5073394;28;20047;-66
2022/01/08 07:00:47;;;;;;;1.13;0.20;;;14.60;45.50;;;;;;5073593;28;20048;-67
2022/01/08 07:03:17;;;;;;;1.70;0.30;;;14.80;45.10;;;;;;5073224;28;20106;-66
2022/01/08 07:05:42;;;;;;;1.45;0.40;;;15.10;44.60;;;;;;5056680;28;20055;-67
2022/01/08 07:08:08;;;;;;;2.40;0.98;;;15.50;44.00;;;;;;5074402;28;20080;-67
2022/01/08 07:10:34;;;;;;;1.17;0.75;;;15.90;43.40;;;;;;5073055;28;20138;-66
2022/01/08 07:13:00;;;;;;;1.67;0.30;;;16.30;42.80;;;;;;5074416;28;20074;-66
2022/01/08 07:15:26;;;;;;;1.10;0.30;;;16.70;42.20;;;;;;5073248;28;20049;-66
2022/01/08 07:17:52;;;;;;;1.55;0.22;;;17.10;41.50;;;;;;5073146;28;20037;-66
2022/01/08 07:20:18;;;;;;;1.00;0.20;;;17.50;41.00;;;;;;5074206;28;20377;-67
2022/01/08 07:22:43;;;;;;;0.63;0.20;;;17.80;40.40;;;;;;5072788;28;20068;-66
2022/01/08 07:25:12;;;;;;;0.88;0.20;;;18.10;40.00;;;;;;5072696;28;20076;-66
2022/01/08 07:27:38;;;;;;;1.08;0.20;;;18.30;39.60;;;;;;5073034;28;20032;-66
2022/01/08 07:30:08;;;;;;;1.23;0.20;;;18.40;39.40;;;;;;5073039;28;20590;-66
2022/01/08 07:32:40;;;;;;;1.73;0.30;;;18.50;39.10;;;;;;5074026;28;20040;-67
2022/01/08 07:35:07;;;;;;;1.42;0.35;;;18.60;38.90;;;;;;5072950;28;20051;-67
2022/01/08 07:37:32;;;;;;;1.20;0.20;;;18.60;38.80;;;;;;5072633;28;20195;-66
2022/01/08 07:39:58;;;;;;;2.33;0.50;;;18.50;38.70;;;;;;5074046;28;20062;-67
2022/01/08 07:42:23;;;;;;;0.95;0.25;;;18.50;38.70;;;;;;5072368;28;20135;-67
2022/01/08 07:44:49;;;;;;;0.60;0.20;;;18.50;38.70;;;;;;5073916;28;20403;-67
2022/01/08 07:47:17;;;;;;;3.42;0.30;;;18.40;38.60;;;;;;5073628;28;20067;-67
2022/01/08 07:49:43;;;;;;;1.65;0.35;;;18.30;38.70;;;;;;5072681;28;20032;-69
2022/01/08 07:52:09;;;;;;;1.42;0.20;;;18.20;38.70;;;;;;5072440;28;20469;-66
2022/01/08 07:54:35;;;;;;;0.93;0.30;;;18.10;38.80;;;;;;5073531;28;20545;-66
2022/01/08 07:57:03;;;;;;;1.10;0.20;;;18.00;38.90;;;;;;5073473;28;20396;-67
2022/01/08 07:59:29;;;;;;;1.27;0.28;;;17.90;39.00;;;;;;5072401;28;20040;-67
2022/01/08 08:01:55;;;;;;;1.33;0.30;;;17.80;39.20;;;;;;5072443;28;20045;-66
2022/01/08 08:04:20;;;;;;;1.60;0.38;;;17.70;39.20;;;;;;5071999;28;20511;-67
2022/01/08 08:06:49;;;;;;;0.90;0.20;;;17.60;39.40;;;;;;5072323;28;20090;-67
2022/01/08 08:09:15;;;;;;;1.67;0.20;;;17.70;39.50;;;;;;5071910;28;20036;-67
2022/01/08 08:11:45;;;;;;;1.67;0.40;;;17.40;39.60;;;;;;5071985;28;20062;-67
2022/01/08 08:14:10;;;;;;;2.45;0.30;;;17.40;39.70;;;;;;5072061;28;20044;-66
2022/01/08 08:16:40;;;;;;;1.35;0.50;;;17.20;39.70;;;;;;5073098;28;20400;-67
2022/01/08 08:19:06;;;;;;;2.28;0.30;;;17.20;39.90;;;;;;5071852;28;20093;-66
2022/01/08 08:21:31;;;;;;;1.02;0.45;;;17.10;40.00;;;;;;5071774;28;20044;-66
2022/01/08 08:23:57;;;;;;;1.38;0.20;;;17.00;40.20;;;;;;5072783;28;20033;-67
2022/01/08 08:26:23;;;;;;;1.83;0.40;;;16.90;40.30;;;;;;5072952;28;20165;-66
2022/01/08 08:28:48;;;;;;;2.25;0.20;;;16.80;40.40;;;;;;5071590;28;20039;-66
2022/01/08 08:31:14;;;;;;;1.33;0.20;;;16.70;40.60;;;;;;5071854;28;20105;-66
2022/01/08 08:33:40;;;;;;;2.00;0.40;;;16.60;40.70;;;;;;5071701;28;20048;-67
2022/01/08 08:36:06;;;;;;;1.23;0.30;;;16.50;40.70;;;;;;5071551;28;20048;-68
2022/01/08 08:38:32;;;;;;;1.05;0.30;;;16.50;40.90;;;;;;5072584;28;20041;-66
2022/01/08 08:40:58;;;;;;;1.65;0.30;;;16.40;41.00;;;;;;5071380;28;20501;-66
2022/01/08 08:43:24;;;;;;;1.25;0.30;;;16.40;41.10;;;;;;5072262;28;20095;-66
2022/01/08 08:45:50;;;;;;;1.05;0.28;;;16.30;41.10;;;;;;5071239;28;20445;-66
2022/01/08 08:48:16;;;;;;;2.85;0.40;;;16.20;41.20;;;;;;5071526;28;20042;-67
2022/01/08 08:50:48;;;;;;;0.60;0.20;;;16.20;41.30;;;;;;5072502;28;20032;-66
2022/01/08 08:53:14;;;;;;;1.90;0.30;;;16.10;41.40;;;;;;5069898;28;20045;-67
2022/01/08 08:55:39;;;;;;;2.20;0.28;;;16.10;41.40;;;;;;5070025;28;20086;-67
2022/01/08 08:58:05;;;;;;;1.33;0.30;;;16.00;41.90;;;;;;5070063;28;20253;-67
2022/01/08 09:00:31;;;;;;;0.95;0.22;;;15.90;42.00;;;;;;5071150;28;20040;-67
2022/01/08 09:02:56;;;;;;;5.18;0.60;;;15.80;42.40;;;;;;5069994;28;20123;-68
2022/01/08 09:05:22;;;;;;;2.28;0.40;;;15.80;42.90;;;;;;5069396;28;20040;-67
2022/01/08 09:07:48;;;;;;;3.88;0.43;;;15.70;43.10;;;;;;5071187;28;20049;-67
2022/01/08 09:10:14;;;;;;;1.58;0.28;;;15.70;43.40;;;;;;5070057;28;20044;-69
2022/01/08 09:12:41;;;;;;;3.33;0.30;;;15.60;43.60;;;;;;5070220;28;20036;-67
2022/01/08 09:15:08;;;;;;;2.65;0.35;;;15.60;43.90;;;;;;5070841;28;20115;-67
2022/01/08 09:17:40;;;;;;;4.30;0.30;;;15.60;44.20;;;;;;5070764;28;20036;-68
2022/01/08 09:20:07;;;;;;;1.50;0.30;;;15.50;44.40;;;;;;5070055;28;20119;-67
2022/01/08 09:22:33;;;;;;;1.23;0.43;;;15.50;44.70;;;;;;5069908;28;20044;-67
2022/01/08 09:25:02;;;;;;;4.50;0.52;;;15.40;44.70;;;;;;5070951;28;20481;-67
2022/01/08 09:27:27;;;;;;;3.17;0.47;;;15.30;44.90;;;;;;5069232;28;20040;-66
2022/01/08 09:29:55;;;;;;;2.25;0.50;;;15.30;45.00;;;;;;5071089;28;20041;-67
2022/01/08 09:32:25;;;;;;;1.95;0.40;;;15.20;45.20;;;;;;5069832;28;20517;-70
2022/01/08 09:34:51;;;;;;;5.47;0.63;;;15.10;45.40;;;;;;5070890;28;20086;-68
2022/01/08 09:37:17;;;;;;;2.75;0.43;;;15.10;45.70;;;;;;5068621;28;20064;-68
2022/01/08 09:39:43;;;;;;;4.00;0.40;;;15.10;45.80;;;;;;5070048;28;20112;-67
2022/01/08 09:42:09;;;;;;;0.85;0.40;;;15.00;46.00;;;;;;5069835;28;20175;-67
2022/01/08 09:44:37;;;;;;;1.45;0.70;;;15.00;46.10;;;;;;5065938;28;20499;-66
2022/01/08 09:47:04;;;;;;;2.33;0.35;;;15.00;46.10;;;;;;5070238;28;20099;-65
2022/01/08 09:49:30;;;;;;;1.60;0.30;;;15.00;46.20;;;;;;5071924;28;20032;-69
2022/01/08 09:51:56;;;;;;;1.83;0.20;;;14.90;46.50;;;;;;5070866;28;20372;-70
2022/01/08 09:54:21;;;;;;;1.30;0.30;;;14.90;46.20;;;;;;5068011;28;20119;-71
2022/01/08 09:56:47;;;;;;;2.38;0.20;;;14.90;46.20;;;;;;5068790;28;20052;-67
2022/01/08 09:59:13;;;;;;;2.05;0.20;;;14.90;46.20;;;;;;5084089;28;20045;-67
2022/01/08 10:01:39;;;;;;;3.00;0.32;;;15.00;46.20;;;;;;5055947;28;20040;-65
2022/01/08 10:04:06;;;;;;;4.18;0.40;;;15.20;46.10;;;;;;5071169;28;20058;-65
2022/01/08 10:06:36;;;;;;;3.08;0.50;;;15.30;45.80;;;;;;5074984;28;20706;-67
2022/01/08 10:09:04;;;;;;;2.17;0.45;;;15.50;45.60;;;;;;5075597;28;20044;-69
2022/01/08 10:11:31;;;;;;;2.85;0.50;;;15.70;45.20;;;;;;5057733;28;20037;-64
2022/01/08 10:14:03;;;;;;;4.40;0.50;;;15.90;45.00;;;;;;5073169;28;20484;-66
2022/01/08 10:19:21;;;;;;;4.03;0.30;;;16.40;44.30;;;;;;5074176;28;20126;-67
2022/01/08 10:21:48;;;;;;;3.65;0.30;;;16.70;43.80;;;;;;5074589;28;20028;-70
2022/01/08 10:24:20;;;;;;;2.45;0.52;;;17.10;43.40;;;;;;5070183;28;20037;-67
2022/01/08 10:26:51;;;;;;;2.15;0.30;;;17.40;43.00;;;;;;5057479;28;20491;-67
2022/01/08 10:29:20;;;;;;;5.70;0.32;;;17.70;42.50;;;;;;5057472;28;20373;-65
2022/01/08 10:31:48;;;;;;;5.63;0.70;;;18.00;42.00;;;;;;5065023;28;20159;-66
2022/01/08 10:34:17;;;;;;;2.78;0.57;;;18.30;41.40;;;;;;5073675;28;20369;-66
2022/01/08 10:39:52;;;;;;;4.47;0.30;;;18.80;40.80;;;;;;5143231;27;20441;-67
2022/01/08 10:42:18;;;;;;;5.03;0.28;;;19.00;40.20;;;;;;5128915;28;20075;-65
2022/01/08 10:44:47;;;;;;;5.68;0.80;;;19.30;39.80;;;;;;5128848;28;20070;-71
2022/01/08 10:47:17;;;;;;;4.30;0.50;;;19.50;39.40;;;;;;5127871;28;20054;-71
2022/01/08 10:52:25;;;;;;;3.72;0.32;;;19.70;39.30;;;;;;5089270;28;20417;-70
2022/01/08 10:55:00;;;;;;;3.47;0.38;;;20.10;38.70;;;;;;5086547;28;20434;-70
2022/01/08 10:57:34;;;;;;;1.40;0.40;;;20.20;38.50;;;;;;5085496;28;20040;-70
2022/01/08 11:00:00;;;;;;;2.03;0.25;;;20.20;38.30;;;;;;5086314;28;20480;-69
2022/01/08 11:02:28;;;;;;;3.90;0.35;;;20.20;38.30;;;;;;5087286;28;20032;-69
2022/01/08 11:04:55;;;;;;;2.90;0.20;;;20.20;38.30;;;;;;5087192;28;20107;-65
2022/01/08 11:10:07;;;;;;;2.83;0.40;;;20.10;38.30;;;;;;5130145;27;20353;-73
2022/01/08 11:12:37;;;;;;;6.32;0.45;;;20.10;38.60;;;;;;5128915;28;20134;-72
2022/01/08 11:17:56;;;;;;;4.00;0.50;;;20.00;38.80;;;;;;5152341;27;1159215;-74
2022/01/08 11:20:25;;;;;;;3.13;0.30;;;19.90;38.80;;;;;;5153502;27;20420;-70
2022/01/08 11:22:53;;;;;;;4.93;0.50;;;19.80;39.00;;;;;;5153048;27;20038;-72
2022/01/08 11:28:12;;;;;;;1.67;0.50;;;19.60;39.30;;;;;;5129965;27;20917;-69
2022/01/08 11:30:40;;;;;;;4.47;0.32;;;19.50;39.40;;;;;;5128487;28;20039;-68
2022/01/08 11:33:13;;;;;;;1.83;0.40;;;19.40;39.60;;;;;;5129698;27;20046;-70
2022/01/08 11:35:41;;;;;;;1.40;0.30;;;19.40;39.70;;;;;;5128618;28;20023;-69
2022/01/08 11:38:19;;;;;;;3.00;0.30;;;19.30;40.00;;;;;;5128185;28;20093;-70
2022/01/08 11:40:47;;;;;;;3.05;0.40;;;19.20;40.10;;;;;;5115372;28;20031;-68
2022/01/08 11:43:15;;;;;;;7.40;1.00;;;19.10;40.20;;;;;;5128099;28;20031;-68
2022/01/08 11:46:03;;;;;;;6.68;0.40;;;19.10;40.30;;;;;;5129527;27;20084;-67
2022/01/08 11:48:33;;;;;;;3.67;0.50;;;19.00;40.50;;;;;;5128009;28;20030;-67
2022/01/08 11:51:00;;;;;;;1.45;0.30;;;19.00;40.50;;;;;;5127365;28;20043;-74
2022/01/08 11:53:28;;;;;;;2.80;0.63;;;18.90;40.60;;;;;;5130317;27;20046;-69
2022/01/08 11:56:05;;;;;;;3.67;0.50;;;18.90;40.60;;;;;;5128777;28;20114;-72
2022/01/08 12:01:14;;;;;;;2.75;0.75;;;18.90;40.70;;;;;;5088360;27;20416;-73
2022/01/08 12:14:27;;;;;;;2.90;0.70;;;18.70;41.10;;;;;;5129828;27;20448;-67
2022/01/08 12:16:55;;;;;;;2.95;0.85;;;18.60;41.30;;;;;;5128779;28;20320;-71
2022/01/08 12:22:29;;;;;;;2.28;0.35;;;18.50;41.60;;;;;;5128702;27;20399;-69
2022/01/08 12:24:58;;;;;;;2.28;0.70;;;18.50;41.60;;;;;;5128471;28;20043;-71
2022/01/08 12:27:45;;;;;;;2.60;0.50;;;18.40;41.50;;;;;;5129952;27;20114;-69
2022/01/08 12:33:18;;;;;;;2.65;0.73;;;18.40;41.60;;;;;;5129799;27;20511;-74
2022/01/08 12:35:44;;;;;;;2.15;0.50;;;18.30;42.60;;;;;;5129035;28;20055;-73
2022/01/08 12:38:28;;;;;;;3.08;0.50;;;18.40;41.90;;;;;;5129599;27;20072;-70
2022/01/08 12:40:55;;;;;;;4.18;0.57;;;18.40;42.20;;;;;;5128920;28;20040;-71
2022/01/08 12:49:11;;;;;;;3.63;0.50;;;18.30;42.20;;;;;;5129737;27;20354;-65
2022/01/08 12:54:31;;;;;;;4.97;0.70;;;18.20;42.40;;;;;;5136294;27;1157647;-73
2022/01/08 12:57:00;;;;;;;3.85;0.75;;;18.20;42.40;;;;;;5152463;27;20042;-73
2022/01/08 12:59:37;;;;;;;1.98;0.73;;;18.20;42.50;;;;;;5149305;27;20500;-73
2022/01/08 13:02:06;;;;;;;3.28;0.50;;;18.10;42.40;;;;;;5149602;27;20042;-73
2022/01/08 13:04:32;;;;;;;3.00;0.50;;;18.00;42.50;;;;;;5170424;27;20421;-74
2022/01/08 13:06:58;;;;;;;2.75;0.70;;;18.00;42.70;;;;;;5170431;27;20034;-71
2022/01/08 13:09:23;;;;;;;3.00;0.82;;;18.00;43.00;;;;;;5152978;27;20038;-67
2022/01/08 13:11:49;;;;;;;2.15;0.80;;;17.90;42.90;;;;;;5171428;27;20445;-68
2022/01/08 13:14:17;;;;;;;3.78;0.70;;;17.90;42.90;;;;;;5152523;27;20570;-74
2022/01/08 13:16:49;;;;;;;2.78;0.80;;;17.90;43.00;;;;;;5152286;27;20055;-67
2022/01/08 13:19:18;;;;;;;5.18;0.60;;;17.80;42.90;;;;;;5150418;27;20130;-69
2022/01/08 13:21:47;;;;;;;2.33;0.70;;;17.80;43.10;;;;;;5150613;27;20049;-68
2022/01/08 13:32:20;;;;;;;2.22;0.50;;;17.70;43.20;;;;;;5089464;27;20385;-68
2022/01/08 13:34:49;;;;;;;2.20;0.60;;;17.60;43.20;;;;;;5122325;28;20083;-67
2022/01/08 13:37:17;;;;;;;2.83;0.50;;;17.60;43.20;;;;;;5088063;28;20040;-67
2022/01/08 13:39:51;;;;;;;1.40;0.50;;;17.50;43.00;;;;;;5087978;28;20044;-66
2022/01/08 13:45:00;;;;;;;2.72;0.60;;;17.60;43.10;;;;;;5152619;27;1169672;-67
2022/01/08 13:50:32;;;;;;;2.20;0.43;;;17.60;42.90;;;;;;5130166;27;20407;-67
2022/01/08 13:53:02;;;;;;;3.03;0.60;;;17.50;42.80;;;;;;5146438;27;20049;-66
2022/01/08 14:00:53;;;;;;;1.33;0.30;;;17.40;42.90;;;;;;5152883;27;1163156;-67
2022/01/08 14:03:28;;;;;;;1.30;0.55;;;17.40;42.90;;;;;;5153089;27;20264;-66
2022/01/08 14:05:58;;;;;;;1.95;0.75;;;17.30;42.90;;;;;;5153100;27;20050;-68